Time;durP1;ratioP1;P1;durP2;ratioP2;P2;SDS_P1;SDS_P2;PMS_P1;PMS_P2;Temp;Humidity;BMP_temperature;BMP_pressure;BME280_temperature;BME280_humidity;BME280_pressure;Samples;Min_cycle;Max_cycle;Signal;HPM_P1;HPM_P2
2023/09/17 00:01:09;;;;;;;9.98;7.88;;;;;;;20.26;83.96;95127.22;5129736;27;20690;-42
2023/09/17 00:03:36;;;;;;;9.57;6.90;;;;;;;20.28;83.03;95122.63;5129858;27;20192;-43
2023/09/17 00:06:03;;;;;;;9.20;7.68;;;;;;;20.29;82.92;95124.22;5129912;27;20192;-43
2023/09/17 00:08:30;;;;;;;9.13;7.35;;;;;;;20.27;82.21;95111.44;5129764;28;20194;-43
2023/09/17 00:10:58;;;;;;;8.02;6.25;;;;;;;20.21;81.83;95112.19;5129960;28;20272;-45
2023/09/17 00:13:25;;;;;;;8.77;6.40;;;;;;;20.29;81.14;95119.03;5129908;28;20545;-44
2023/09/17 00:15:53;;;;;;;5.85;5.30;;;;;;;20.26;80.47;95103.84;5129346;28;20188;-44
2023/09/17 00:18:19;;;;;;;5.88;5.20;;;;;;;20.26;79.83;95116.81;5130071;28;20666;-42
2023/09/17 00:20:46;;;;;;;7.57;5.82;;;;;;;20.21;79.29;95111.38;5129784;28;20200;-43
2023/09/17 00:23:13;;;;;;;6.25;5.20;;;;;;;20.19;78.81;95103.75;5130140;28;20184;-43
2023/09/17 00:25:41;;;;;;;6.18;5.35;;;;;;;20.16;79.08;95104.13;5129517;28;20251;-42
2023/09/17 00:28:10;;;;;;;6.85;5.38;;;;;;;20.18;78.79;95093.56;5130044;28;20220;-43
2023/09/17 00:30:35;;;;;;;6.55;5.70;;;;;;;20.07;78.76;95081.06;5129286;28;20240;-43
2023/09/17 00:33:02;;;;;;;9.38;5.65;;;;;;;20.16;78.94;95085.94;5129686;28;20220;-43
2023/09/17 00:35:29;;;;;;;7.70;6.35;;;;;;;20.16;78.89;95090.34;5130010;28;20287;-44
2023/09/17 00:37:56;;;;;;;8.77;7.40;;;;;;;20.14;79.14;95095.72;5129526;28;20196;-43
2023/09/17 00:40:24;;;;;;;8.63;7.85;;;;;;;20.10;79.30;95091.91;5129575;28;20315;-43
2023/09/17 00:42:51;;;;;;;11.05;9.00;;;;;;;20.12;79.54;95092.53;5129924;28;20276;-44
2023/09/17 00:45:19;;;;;;;10.60;9.52;;;;;;;20.10;80.08;95096.28;5129449;28;20670;-45
2023/09/17 00:47:46;;;;;;;10.00;8.98;;;;;;;19.18;80.39;94946.50;5129567;28;20192;-44
2023/09/17 00:50:13;;;;;;;15.48;10.68;;;;;;;20.07;80.83;95087.06;5129698;28;20191;-44
2023/09/17 00:52:40;;;;;;;12.13;10.60;;;;;;;19.93;81.70;95083.56;5128974;28;20286;-44
2023/09/17 00:55:09;;;;;;;14.25;11.32;;;;;;;19.97;82.14;95094.38;5129928;28;20188;-43
2023/09/17 00:57:37;;;;;;;12.05;10.35;;;;;;;19.94;82.63;95095.53;5131937;27;20200;-43
2023/09/17 01:00:09;;;;;;;11.93;10.77;;;;;;;19.97;82.65;95094.38;5133739;27;20257;-45
2023/09/17 01:02:37;;;;;;;14.43;12.02;;;;;;;19.95;83.37;95089.38;5133475;27;20249;-44
2023/09/17 01:05:05;;;;;;;16.38;12.27;;;;;;;19.96;83.52;95096.19;5133090;27;20191;-44
2023/09/17 01:07:33;;;;;;;14.13;12.15;;;;;;;19.94;83.85;95092.16;5132951;27;20545;-44
2023/09/17 01:10:01;;;;;;;14.52;13.02;;;;;;;19.87;83.85;95080.91;5133343;27;20200;-44
2023/09/17 01:12:28;;;;;;;14.38;12.75;;;;;;;19.92;83.92;95089.75;5133027;27;20200;-43
2023/09/17 01:14:55;;;;;;;17.13;11.80;;;;;;;19.90;84.08;95089.13;5133305;27;20708;-43
2023/09/17 01:17:27;;;;;;;15.60;13.50;;;;;;;19.89;84.34;95091.91;5133177;27;20223;-45
2023/09/17 01:19:55;;;;;;;14.65;13.23;;;;;;;19.84;84.62;95089.88;5132999;27;20544;-42
2023/09/17 01:22:29;;;;;;;15.57;13.50;;;;;;;19.90;84.40;95093.50;5133059;27;20188;-41
2023/09/17 01:25:05;;;;;;;13.35;11.95;;;;;;;19.88;85.11;95090.31;5132796;27;20307;-43
2023/09/17 01:27:35;;;;;;;14.43;12.85;;;;;;;19.89;84.65;95094.50;5132869;27;20180;-44
2023/09/17 01:30:05;;;;;;;15.68;13.30;;;;;;;19.88;84.66;95092.91;5133206;27;20311;-45
2023/09/17 01:32:32;;;;;;;15.43;12.83;;;;;;;19.79;85.28;95072.25;5132577;27;20181;-44
2023/09/17 01:34:59;;;;;;;14.93;13.27;;;;;;;19.84;85.19;95089.88;5132343;27;20219;-47
2023/09/17 01:37:31;;;;;;;15.20;13.45;;;;;;;19.80;85.17;95099.00;5132901;27;20180;-45
2023/09/17 01:40:00;;;;;;;16.25;14.27;;;;;;;19.84;85.06;95095.06;5132809;27;20292;-44
2023/09/17 01:42:27;;;;;;;17.33;14.88;;;;;;;19.81;85.34;95085.03;5132862;27;20173;-45
2023/09/17 01:44:57;;;;;;;18.77;14.60;;;;;;;19.86;85.18;95094.88;5132219;27;20188;-44
2023/09/17 01:47:25;;;;;;;18.73;14.37;;;;;;;19.84;85.15;95096.84;5133123;27;20204;-43
2023/09/17 01:49:57;;;;;;;19.08;15.20;;;;;;;19.83;85.40;95090.84;5132021;27;20188;-45
2023/09/17 01:52:26;;;;;;;15.98;14.32;;;;;;;19.82;85.86;95088.44;5132443;27;20188;-45
2023/09/17 01:54:53;;;;;;;16.70;14.80;;;;;;;19.79;85.68;95103.41;5132380;27;20278;-43
2023/09/17 01:57:20;;;;;;;17.05;13.82;;;;;;;19.74;85.84;95086.78;5132260;27;20185;-43
2023/09/17 01:59:46;;;;;;;15.75;14.15;;;;;;;19.76;86.01;95090.78;5131994;27;20705;-44
2023/09/17 02:02:15;;;;;;;15.57;13.45;;;;;;;19.78;86.33;95095.81;5131880;27;20233;-43
2023/09/17 02:04:41;;;;;;;20.67;14.63;;;;;;;19.78;86.16;95090.63;5132253;27;20196;-43
2023/09/17 02:07:09;;;;;;;15.27;13.68;;;;;;;19.78;86.43;95095.81;5131825;27;20211;-46
2023/09/17 02:09:35;;;;;;;16.95;14.48;;;;;;;19.74;86.98;95097.97;5131362;27;20196;-45
2023/09/17 02:12:02;;;;;;;16.27;13.75;;;;;;;19.74;87.20;95097.16;5132258;27;20188;-43
2023/09/17 02:14:29;;;;;;;17.73;14.07;;;;;;;19.71;87.38;95095.72;5131436;27;20704;-44
2023/09/17 02:16:56;;;;;;;17.70;14.45;;;;;;;19.71;87.55;95093.13;5131824;27;20241;-43
2023/09/17 02:19:25;;;;;;;16.52;14.80;;;;;;;19.68;88.00;95093.50;5131724;27;20241;-46
2023/09/17 02:21:52;;;;;;;19.15;15.63;;;;;;;19.70;87.91;95095.91;5132212;27;20283;-45
2023/09/17 02:24:19;;;;;;;17.77;15.32;;;;;;;19.64;88.75;95094.84;5131963;27;20180;-45
2023/09/17 02:26:46;;;;;;;17.73;14.75;;;;;;;19.62;89.20;95099.44;5131588;27;20224;-45
2023/09/17 02:29:13;;;;;;;19.25;17.17;;;;;;;19.60;89.61;95100.56;5131771;27;20281;-45
2023/09/17 02:31:40;;;;;;;18.80;16.60;;;;;;;19.46;89.74;95079.66;5131403;27;20184;-44
2023/09/17 02:34:06;;;;;;;18.60;16.10;;;;;;;19.54;89.57;95097.72;5131930;27;20630;-44
2023/09/17 02:36:36;;;;;;;19.10;16.08;;;;;;;19.52;89.63;95104.09;5131061;27;20193;-43
2023/09/17 02:39:04;;;;;;;18.40;16.33;;;;;;;19.47;90.14;95096.84;5131629;27;20184;-44
2023/09/17 02:41:30;;;;;;;21.43;16.53;;;;;;;19.41;90.52;95102.75;5131481;27;20191;-44
2023/09/17 02:43:59;;;;;;;17.97;16.07;;;;;;;19.41;90.41;95088.97;5131820;27;20260;-43
2023/09/17 02:46:26;;;;;;;18.00;16.02;;;;;;;19.38;90.67;95087.53;5131338;27;20546;-43
2023/09/17 02:48:54;;;;;;;23.63;16.83;;;;;;;19.38;90.64;95086.75;5131283;27;20211;-44
2023/09/17 02:51:21;;;;;;;21.75;16.77;;;;;;;19.36;90.80;95086.13;5131133;27;20190;-45
2023/09/17 02:53:49;;;;;;;18.27;15.80;;;;;;;19.36;91.18;95083.53;5131281;27;20220;-44
2023/09/17 02:56:16;;;;;;;19.50;16.48;;;;;;;19.19;90.85;95057.00;5131231;27;20253;-44
2023/09/17 02:58:43;;;;;;;21.35;16.52;;;;;;;19.30;91.11;95082.50;5131143;27;20195;-44
2023/09/17 03:01:18;;;;;;;18.73;15.88;;;;;;;19.29;91.18;95079.06;5131137;27;20196;-43
2023/09/17 03:03:45;;;;;;;19.77;16.67;;;;;;;19.28;91.31;95076.66;5130827;27;20222;-44
2023/09/17 03:06:12;;;;;;;19.15;16.88;;;;;;;19.15;91.20;95055.75;5131124;27;20224;-44
2023/09/17 03:08:41;;;;;;;24.00;16.37;;;;;;;19.22;91.35;95075.59;5131175;27;20199;-51
2023/09/17 03:11:13;;;;;;;23.58;16.67;;;;;;;19.24;91.69;95076.22;5131154;27;20564;-44
2023/09/17 03:13:41;;;;;;;20.67;16.60;;;;;;;19.22;91.67;95075.59;5130919;27;20353;-44
2023/09/17 03:16:08;;;;;;;17.73;15.50;;;;;;;19.22;92.10;95074.81;5131089;27;20657;-45
2023/09/17 03:18:35;;;;;;;19.53;16.83;;;;;;;19.22;92.10;95072.22;5130720;27;20245;-44
2023/09/17 03:21:05;;;;;;;18.20;16.17;;;;;;;19.19;92.39;95078.56;5131172;27;20204;-43
2023/09/17 03:23:32;;;;;;;18.95;17.05;;;;;;;19.19;92.35;95075.97;5130777;27;20296;-45
2023/09/17 03:26:00;;;;;;;20.93;16.53;;;;;;;19.18;92.36;95082.13;5130907;27;20219;-44
2023/09/17 03:28:28;;;;;;;22.33;16.27;;;;;;;19.15;92.36;95081.69;5130406;27;20173;-46
2023/09/17 03:30:55;;;;;;;20.65;16.55;;;;;;;19.21;92.56;95086.13;5130820;27;20176;-45
2023/09/17 03:33:22;;;;;;;21.73;17.57;;;;;;;19.20;92.09;95089.72;5130700;27;20660;-44
2023/09/17 03:35:49;;;;;;;23.42;16.88;;;;;;;18.96;92.13;95054.56;5130675;27;20189;-44
2023/09/17 03:38:16;;;;;;;19.42;16.25;;;;;;;19.21;92.31;95091.31;5130640;27;20196;-44
2023/09/17 03:40:43;;;;;;;17.43;15.47;;;;;;;19.20;91.89;95087.94;5130608;27;20638;-44
2023/09/17 03:43:10;;;;;;;18.80;16.75;;;;;;;19.09;91.92;95066.88;5130004;27;20715;-44
2023/09/17 03:45:38;;;;;;;21.00;16.25;;;;;;;19.22;91.78;95088.56;5130379;27;20567;-44
2023/09/17 03:48:06;;;;;;;19.43;17.33;;;;;;;19.22;91.75;95092.97;5130447;27;20323;-44
2023/09/17 03:50:33;;;;;;;18.83;16.17;;;;;;;19.24;91.57;95088.38;5130634;27;20195;-43
2023/09/17 03:53:05;;;;;;;20.27;17.53;;;;;;;19.23;91.68;95091.97;5130669;27;20548;-42
2023/09/17 03:55:33;;;;;;;22.57;17.10;;;;;;;19.24;91.16;95094.38;5130284;27;20208;-44
2023/09/17 03:58:00;;;;;;;20.02;15.55;;;;;;;19.24;91.00;95098.75;5130533;27;20180;-44
2023/09/17 04:00:27;;;;;;;23.60;17.88;;;;;;;19.23;90.96;95097.16;5130061;27;20589;-44
2023/09/17 04:02:55;;;;;;;22.23;17.30;;;;;;;19.25;90.82;95103.75;5130117;27;20188;-43
2023/09/17 04:05:24;;;;;;;25.37;18.67;;;;;;;19.26;90.66;95102.78;5129814;27;20253;-44
2023/09/17 04:07:50;;;;;;;21.63;17.60;;;;;;;19.26;90.87;95102.00;5129990;27;20192;-43
2023/09/17 04:10:19;;;;;;;21.45;18.00;;;;;;;19.17;90.30;95090.09;5129740;28;20184;-44
2023/09/17 04:12:46;;;;;;;21.60;18.37;;;;;;;19.28;90.37;95105.19;5129402;28;20278;-44
2023/09/17 04:15:16;;;;;;;22.93;19.67;;;;;;;19.29;90.56;95106.78;5128757;28;20219;-43
2023/09/17 04:17:43;;;;;;;23.30;18.87;;;;;;;19.22;90.40;95098.16;5130246;28;20184;-44
2023/09/17 04:20:13;;;;;;;24.98;20.42;;;;;;;19.29;90.42;95111.97;5129944;28;20256;-43
2023/09/17 04:22:42;;;;;;;22.93;19.87;;;;;;;19.27;90.72;95109.56;5129682;28;20649;-44
2023/09/17 04:25:09;;;;;;;25.08;19.83;;;;;;;19.27;90.57;95103.59;5129914;27;20791;-43
2023/09/17 04:27:37;;;;;;;20.87;17.70;;;;;;;19.26;90.95;95109.78;5129722;28;20199;-44
2023/09/17 04:30:05;;;;;;;24.27;18.33;;;;;;;19.27;91.34;95111.38;5129888;28;20196;-44
2023/09/17 04:32:37;;;;;;;24.20;18.45;;;;;;;19.23;91.12;95110.91;5132724;27;20220;-44
2023/09/17 04:35:05;;;;;;;20.70;18.00;;;;;;;19.22;91.31;95105.94;5113229;28;20221;-45
2023/09/17 04:37:34;;;;;;;21.20;18.60;;;;;;;19.24;91.59;95115.13;5113573;28;20276;-45
2023/09/17 04:40:01;;;;;;;26.75;19.55;;;;;;;19.20;92.07;95116.47;5113616;28;20189;-45
2023/09/17 04:42:30;;;;;;;24.33;18.55;;;;;;;19.17;92.28;95111.66;5125058;27;20224;-44
2023/09/17 04:44:56;;;;;;;23.83;20.43;;;;;;;19.19;92.17;95111.47;5133751;27;20203;-43
2023/09/17 04:47:24;;;;;;;28.10;21.40;;;;;;;19.21;92.24;95115.50;5133881;27;20192;-43
2023/09/17 04:49:51;;;;;;;27.63;19.47;;;;;;;19.25;92.30;95119.31;5134068;27;20711;-44
2023/09/17 04:52:17;;;;;;;27.83;19.73;;;;;;;19.27;92.98;95125.13;5133355;27;20189;-44
2023/09/17 04:54:46;;;;;;;25.37;19.70;;;;;;;19.30;93.02;95122.19;5133611;27;20223;-47
2023/09/17 04:57:13;;;;;;;29.63;20.75;;;;;;;19.34;93.33;95121.81;5133132;27;20657;-44
2023/09/17 04:59:40;;;;;;;24.77;19.20;;;;;;;19.39;92.88;95119.50;5133438;27;20270;-44
2023/09/17 05:02:06;;;;;;;23.17;20.60;;;;;;;19.41;92.83;95120.91;5132800;27;20195;-42
2023/09/17 05:04:33;;;;;;;25.70;19.50;;;;;;;19.08;92.76;95058.25;5133695;27;20199;-45
2023/09/17 05:07:00;;;;;;;23.00;19.30;;;;;;;19.52;92.68;95119.66;5133102;27;20192;-43
2023/09/17 05:09:27;;;;;;;23.60;20.35;;;;;;;19.58;92.53;95121.50;5133142;27;20188;-43
2023/09/17 05:11:55;;;;;;;29.13;19.60;;;;;;;19.66;92.10;95124.03;5132908;27;20532;-43
2023/09/17 05:14:22;;;;;;;24.98;20.00;;;;;;;19.73;91.92;95118.88;5133593;27;20212;-43
2023/09/17 05:16:49;;;;;;;22.58;19.45;;;;;;;19.82;91.62;95125.59;5133405;27;20199;-45
2023/09/17 05:19:15;;;;;;;23.30;18.88;;;;;;;19.88;91.47;95124.06;5133544;27;20207;-46
2023/09/17 05:21:42;;;;;;;23.83;17.23;;;;;;;19.92;91.02;95122.69;5133015;27;20198;-45
2023/09/17 05:24:09;;;;;;;23.13;18.15;;;;;;;19.98;90.86;95120.16;5133292;27;20181;-44
2023/09/17 05:26:36;;;;;;;22.20;19.55;;;;;;;19.99;90.90;95123.53;5133021;27;20231;-44
2023/09/17 05:29:04;;;;;;;26.30;18.65;;;;;;;20.07;90.99;95125.22;5133078;27;20195;-43
2023/09/17 05:31:32;;;;;;;24.55;20.10;;;;;;;20.10;91.00;95123.06;5133117;27;20189;-45
2023/09/17 05:33:59;;;;;;;27.10;20.20;;;;;;;20.22;90.56;95124.19;5133089;27;20181;-44
2023/09/17 05:36:26;;;;;;;25.67;18.83;;;;;;;20.32;90.54;95120.47;5132439;27;20227;-45
2023/09/17 05:38:53;;;;;;;22.35;18.52;;;;;;;20.39;90.21;95121.31;5132146;27;20176;-43
2023/09/17 05:41:19;;;;;;;26.05;19.27;;;;;;;20.49;89.88;95119.22;5133121;27;20188;-44
2023/09/17 05:43:46;;;;;;;26.90;19.83;;;;;;;20.60;89.64;95129.13;5132137;27;20248;-45
2023/09/17 05:46:15;;;;;;;26.83;19.60;;;;;;;20.65;89.64;95131.16;5132844;27;20192;-45
2023/09/17 05:48:41;;;;;;;25.40;18.08;;;;;;;20.64;89.36;95125.16;5132651;27;20264;-44
2023/09/17 05:51:08;;;;;;;23.98;19.50;;;;;;;20.83;88.93;95126.25;5132665;27;20188;-43
2023/09/17 05:53:35;;;;;;;22.95;19.42;;;;;;;21.02;88.11;95128.16;5133296;27;20208;-44
2023/09/17 05:56:04;;;;;;;26.20;19.17;;;;;;;21.18;87.57;95131.47;5133181;27;20232;-43
2023/09/17 05:58:30;;;;;;;27.25;20.52;;;;;;;21.28;86.93;95134.50;5132751;27;20208;-45
2023/09/17 06:01:05;;;;;;;24.05;19.83;;;;;;;21.38;86.39;95140.22;5132926;27;20210;-45
2023/09/17 06:03:33;;;;;;;25.65;19.02;;;;;;;;;;5132927;27;20278;-45
2023/09/17 06:06:04;;;;;;;26.23;19.40;;;;;;;21.51;85.76;95139.47;5132786;27;20196;-45
2023/09/17 06:08:32;;;;;;;25.70;20.85;;;;;;;21.56;85.52;95138.88;5132776;27;20188;-46
2023/09/17 06:11:00;;;;;;;28.02;20.20;;;;;;;21.54;85.50;95142.47;5133191;27;20200;-46
2023/09/17 06:13:29;;;;;;;24.08;19.02;;;;;;;21.52;85.24;95141.06;5132997;27;20197;-44
2023/09/17 06:15:55;;;;;;;23.67;20.13;;;;;;;21.46;85.53;95141.81;5132993;27;20221;-46
2023/09/17 06:18:22;;;;;;;22.55;19.17;;;;;;;21.40;86.12;95140.81;5133811;27;20176;-45
2023/09/17 06:20:51;;;;;;;22.75;19.30;;;;;;;21.20;86.51;95103.44;5133014;27;20188;-45
2023/09/17 06:23:18;;;;;;;28.70;20.50;;;;;;;21.49;86.55;95136.22;5132430;27;20203;-44
2023/09/17 06:25:46;;;;;;;24.98;18.90;;;;;;;21.61;85.97;95149.50;5132221;27;20232;-45
2023/09/17 06:28:13;;;;;;;32.22;18.27;;;;;;;21.61;86.13;95155.50;5131245;27;20189;-43
2023/09/17 06:30:40;;;;;;;27.40;20.10;;;;;;;21.66;85.88;95160.13;5131977;27;20191;-44
2023/09/17 06:33:07;;;;;;;25.17;19.10;;;;;;;21.72;86.12;95160.16;5132305;27;20191;-45
2023/09/17 06:35:34;;;;;;;25.80;19.85;;;;;;;21.74;86.02;95154.75;5132607;27;20220;-43
2023/09/17 06:38:02;;;;;;;23.48;17.60;;;;;;;21.77;85.95;95167.38;5132230;27;20189;-45
2023/09/17 06:40:29;;;;;;;26.27;18.60;;;;;;;21.72;85.85;95156.75;5131949;27;20195;-46
2023/09/17 06:42:56;;;;;;;27.98;19.52;;;;;;;21.79;85.79;95162.78;5131481;27;20204;-45
2023/09/17 06:45:23;;;;;;;24.10;19.60;;;;;;;21.71;85.87;95155.94;5132196;27;20196;-46
2023/09/17 06:47:50;;;;;;;25.25;19.30;;;;;;;21.75;85.91;95156.34;5131901;27;20187;-44
2023/09/17 06:50:17;;;;;;;24.40;18.25;;;;;;;21.81;85.75;95165.22;5132071;27;20261;-46
2023/09/17 06:52:44;;;;;;;30.38;19.30;;;;;;;21.86;85.55;95158.41;5131215;27;20665;-45
2023/09/17 06:55:12;;;;;;;22.58;18.75;;;;;;;21.94;85.10;95158.22;5131094;27;20219;-44
2023/09/17 06:57:39;;;;;;;21.92;18.45;;;;;;;22.10;85.02;95153.63;5131581;27;20192;-47
2023/09/17 07:00:07;;;;;;;20.05;17.20;;;;;;;22.28;84.12;95162.53;5131379;27;20505;-44
2023/09/17 07:02:34;;;;;;;25.65;18.88;;;;;;;22.20;83.67;95135.88;5131215;27;20664;-44
2023/09/17 07:05:04;;;;;;;22.48;18.95;;;;;;;22.39;83.46;95155.91;5131436;27;20199;-45
2023/09/17 07:07:30;;;;;;;20.52;16.88;;;;;;;22.48;83.16;95164.34;5131266;27;20202;-44
2023/09/17 07:09:57;;;;;;;24.05;15.98;;;;;;;22.62;82.72;95163.34;5130227;27;20187;-46
2023/09/17 07:12:25;;;;;;;21.95;17.33;;;;;;;22.71;82.22;95162.16;5131070;27;20197;-46
2023/09/17 07:14:52;;;;;;;19.80;17.13;;;;;;;22.77;81.48;95168.38;5124184;27;20212;-46
2023/09/17 07:17:19;;;;;;;22.98;18.00;;;;;;;22.90;81.49;95165.78;5110884;27;20192;-44
2023/09/17 07:19:46;;;;;;;21.02;17.25;;;;;;;23.10;80.38;95165.75;5128874;27;20249;-43
2023/09/17 07:22:14;;;;;;;20.83;18.40;;;;;;;23.09;80.29;95163.34;5123719;27;20189;-43
2023/09/17 07:24:42;;;;;;;20.27;16.42;;;;;;;23.10;79.94;95178.81;5122291;27;20185;-43
2023/09/17 07:27:08;;;;;;;22.92;17.38;;;;;;;23.11;79.59;95169.16;5127438;27;20252;-45
2023/09/17 07:29:37;;;;;;;23.25;17.80;;;;;;;23.35;78.97;95178.94;5119756;27;20189;-44
2023/09/17 07:32:05;;;;;;;26.20;17.75;;;;;;;23.59;77.85;95190.53;5124052;27;20210;-43
2023/09/17 07:34:32;;;;;;;21.30;18.58;;;;;;;23.90;76.56;95183.78;5127770;27;20197;-44
2023/09/17 07:36:59;;;;;;;22.27;17.52;;;;;;;24.04;75.95;95183.50;5126324;27;20299;-44
2023/09/17 07:39:26;;;;;;;22.75;18.10;;;;;;;24.10;75.73;95179.28;5123606;27;20292;-44
2023/09/17 07:41:53;;;;;;;21.55;17.90;;;;;;;24.28;74.97;95196.88;5127125;27;20184;-44
2023/09/17 07:44:20;;;;;;;28.67;18.50;;;;;;;24.35;74.51;95197.59;5125295;27;20203;-43
2023/09/17 07:46:48;;;;;;;27.23;18.80;;;;;;;24.39;74.05;95193.59;5116598;27;20193;-43
2023/09/17 07:49:15;;;;;;;27.60;18.00;;;;;;;24.37;73.76;95189.56;5120530;27;20583;-45
2023/09/17 07:51:42;;;;;;;21.88;18.17;;;;;;;24.41;73.94;95183.72;5118634;27;20849;-43
2023/09/17 07:54:08;;;;;;;18.55;16.45;;;;;;;24.46;73.62;95191.75;5126600;27;20719;-44
2023/09/17 07:56:35;;;;;;;20.42;16.20;;;;;;;24.43;73.28;95194.78;5119700;27;20288;-43
2023/09/17 07:59:03;;;;;;;21.88;17.70;;;;;;;24.43;73.05;95194.78;5114048;27;20208;-43
2023/09/17 08:01:30;;;;;;;21.95;18.33;;;;;;;24.41;73.80;95198.63;5128902;27;20249;-45
2023/09/17 08:03:58;;;;;;;21.33;17.00;;;;;;;24.35;73.36;95196.81;5117044;27;20561;-44
2023/09/17 08:06:25;;;;;;;21.85;17.13;;;;;;;24.34;73.44;95197.81;5131160;27;20192;-44
2023/09/17 08:08:52;;;;;;;22.17;17.95;;;;;;;24.29;73.35;95193.22;5119819;27;20209;-43
2023/09/17 08:11:19;;;;;;;20.77;18.30;;;;;;;24.34;73.54;95195.22;5115382;28;20657;-42
2023/09/17 08:13:48;;;;;;;20.80;17.60;;;;;;;24.35;73.34;95191.56;5118217;27;20302;-42
2023/09/17 08:16:15;;;;;;;21.25;17.85;;;;;;;24.27;73.60;95201.28;5128398;27;20224;-42
2023/09/17 08:18:42;;;;;;;22.30;18.40;;;;;;;24.22;74.18;95195.06;5117813;28;20191;-43
2023/09/17 08:21:10;;;;;;;22.67;18.33;;;;;;;24.22;74.13;95190.66;5116604;28;20200;-43
2023/09/17 08:23:37;;;;;;;23.17;17.63;;;;;;;24.15;74.27;95195.13;5118885;27;20211;-43
2023/09/17 08:26:04;;;;;;;27.27;19.08;;;;;;;24.17;74.18;95194.91;5124219;27;20216;-43
2023/09/17 08:28:31;;;;;;;22.67;17.77;;;;;;;24.16;74.40;95194.09;5124072;27;20641;-43
2023/09/17 08:30:58;;;;;;;19.65;16.63;;;;;;;24.22;74.08;95187.22;5121479;28;20192;-44
2023/09/17 08:33:24;;;;;;;19.50;17.05;;;;;;;24.26;73.43;95191.03;5116473;28;20192;-44
2023/09/17 08:35:51;;;;;;;24.33;18.77;;;;;;;24.16;73.45;95190.69;5122071;28;20220;-43
2023/09/17 08:38:19;;;;;;;21.63;18.17;;;;;;;24.11;73.79;95187.91;5126344;27;20696;-42
2023/09/17 08:40:48;;;;;;;21.10;17.10;;;;;;;24.13;73.70;95193.72;5124440;28;20180;-44
2023/09/17 08:43:15;;;;;;;20.17;15.93;;;;;;;24.07;73.38;95186.72;5121086;28;20284;-44
2023/09/17 08:45:43;;;;;;;25.55;18.02;;;;;;;24.09;73.13;95177.66;5115747;28;20208;-44
2023/09/17 08:48:10;;;;;;;25.25;18.02;;;;;;;24.18;73.24;95186.88;5103376;28;20626;-44
2023/09/17 08:50:38;;;;;;;23.38;17.92;;;;;;;24.31;73.02;95186.00;5121861;27;20808;-45
2023/09/17 08:53:09;;;;;;;21.77;18.05;;;;;;;24.47;71.87;95185.50;5129501;28;20185;-44
2023/09/17 08:55:37;;;;;;;20.88;17.98;;;;;;;24.57;71.86;95177.19;5129469;28;20700;-45
2023/09/17 08:58:12;;;;;;;23.55;18.77;;;;;;;24.79;71.05;95180.25;5129213;28;20192;-43
2023/09/17 09:00:42;;;;;;;23.92;18.88;;;;;;;24.94;70.56;95177.28;5119658;28;20187;-43
2023/09/17 09:03:11;;;;;;;23.83;17.70;;;;;;;25.05;69.98;95181.81;5121229;27;20188;-45
2023/09/17 09:05:38;;;;;;;20.60;17.08;;;;;;;25.10;69.47;95171.53;5109180;28;20196;-45
2023/09/17 09:08:06;;;;;;;20.77;16.92;;;;;;;25.15;68.97;95170.88;5108844;28;20302;-44
2023/09/17 09:10:33;;;;;;;22.33;17.10;;;;;;;25.17;68.32;95171.44;5108955;28;20196;-43
2023/09/17 09:13:03;;;;;;;23.45;17.92;;;;;;;25.17;67.81;95168.84;5108594;28;20208;-44
2023/09/17 09:15:31;;;;;;;27.85;21.25;;;;;;;25.21;68.57;95176.03;5108796;28;20196;-45
2023/09/17 09:17:57;;;;;;;23.10;18.77;;;;;;;25.28;68.17;95168.13;5110718;28;20181;-45
2023/09/17 09:20:24;;;;;;;21.35;18.50;;;;;;;25.39;68.17;95174.44;5112625;28;20661;-45
2023/09/17 09:22:51;;;;;;;22.73;17.77;;;;;;;25.47;66.96;95172.34;5112432;28;20189;-44
2023/09/17 09:25:18;;;;;;;17.35;15.23;;;;;;;25.44;67.05;95167.56;5112471;28;20697;-48
2023/09/17 09:27:45;;;;;;;19.75;17.50;;;;;;;25.47;66.68;95159.25;5112302;28;20275;-44
2023/09/17 09:30:15;;;;;;;23.08;17.70;;;;;;;25.54;66.75;95164.41;5112405;28;20190;-45
2023/09/17 09:32:43;;;;;;;19.90;15.13;;;;;;;25.53;66.68;95168.88;5112602;28;20224;-45
2023/09/17 09:35:10;;;;;;;19.10;16.27;;;;;;;25.58;66.75;95165.59;5112349;28;20280;-44
2023/09/17 09:37:37;;;;;;;19.35;16.02;;;;;;;25.58;66.67;95162.16;5112522;28;20337;-51
2023/09/17 09:40:06;;;;;;;21.65;17.30;;;;;;;25.49;66.55;95164.28;5112316;28;20267;-45
2023/09/17 09:42:33;;;;;;;19.85;16.17;;;;;;;25.47;66.81;95164.47;5112342;28;20201;-45
2023/09/17 09:45:00;;;;;;;18.52;16.60;;;;;;;24.65;67.05;95059.19;5112003;28;20665;-44
2023/09/17 09:47:28;;;;;;;20.85;16.35;;;;;;;25.38;66.44;95159.75;5112480;28;20581;-44
2023/09/17 09:49:56;;;;;;;17.13;15.30;;;;;;;25.30;66.88;95171.31;5111988;28;20216;-44
2023/09/17 09:52:24;;;;;;;18.98;16.08;;;;;;;25.21;67.32;95177.84;5112222;28;20284;-44
2023/09/17 09:54:51;;;;;;;19.02;16.05;;;;;;;25.22;67.37;95169.81;5112266;28;20514;-44
2023/09/17 09:57:20;;;;;;;21.20;16.40;;;;;;;25.31;67.31;95175.56;5111996;28;20204;-45
2023/09/17 09:59:48;;;;;;;18.33;15.77;;;;;;;25.28;66.67;95170.75;5112046;28;20681;-44
2023/09/17 10:02:16;;;;;;;22.23;16.00;;;;;;;25.26;66.97;95170.97;5112230;28;20189;-44
2023/09/17 10:04:45;;;;;;;22.08;15.18;;;;;;;25.24;66.59;95165.13;5111756;28;20272;-45
2023/09/17 10:07:13;;;;;;;22.30;16.27;;;;;;;25.22;67.15;95154.09;5111844;28;20216;-44
2023/09/17 10:09:41;;;;;;;18.20;15.70;;;;;;;25.22;67.13;95161.16;5111984;28;20177;-44
2023/09/17 10:12:08;;;;;;;17.50;15.63;;;;;;;25.08;67.26;95160.47;5111822;28;20547;-44
2023/09/17 10:14:37;;;;;;;20.48;16.38;;;;;;;24.82;67.58;95124.06;5111639;28;20878;-46
2023/09/17 10:17:06;;;;;;;22.83;17.55;;;;;;;25.02;67.99;95158.69;5111451;28;20209;-46
2023/09/17 10:19:35;;;;;;;20.33;16.70;;;;;;;24.98;67.84;95154.91;5111680;28;20340;-44
2023/09/17 10:22:06;;;;;;;19.67;15.82;;;;;;;24.92;68.13;95161.81;5111610;28;20189;-43
2023/09/17 10:24:37;;;;;;;20.30;17.48;;;;;;;24.88;68.36;95155.41;5111949;28;20209;-45
2023/09/17 10:27:06;;;;;;;22.75;17.33;;;;;;;24.89;68.51;95153.59;5111563;28;20228;-46
2023/09/17 10:29:35;;;;;;;23.63;18.80;;;;;;;24.91;68.43;95156.78;5110535;28;20190;-44
2023/09/17 10:32:03;;;;;;;24.20;17.40;;;;;;;24.92;68.17;95150.53;5111360;28;20185;-44
2023/09/17 10:34:32;;;;;;;20.10;16.05;;;;;;;24.75;67.81;95155.53;5111256;28;20193;-43
2023/09/17 10:37:02;;;;;;;21.23;18.02;;;;;;;24.71;68.11;95151.72;5111117;28;20227;-44
2023/09/17 10:39:32;;;;;;;19.33;15.90;;;;;;;24.70;68.55;95158.78;5111156;28;20238;-43
2023/09/17 10:42:01;;;;;;;18.05;15.27;;;;;;;24.74;68.53;95153.91;5110984;28;20261;-44
2023/09/17 10:44:30;;;;;;;19.10;15.77;;;;;;;24.77;68.49;95156.88;5110991;28;20284;-44
2023/09/17 10:47:00;;;;;;;20.45;17.13;;;;;;;24.82;68.11;95153.63;5110785;28;20185;-45
2023/09/17 10:49:30;;;;;;;18.02;15.68;;;;;;;24.84;67.73;95151.63;5111016;28;20279;-45
2023/09/17 10:51:58;;;;;;;23.20;17.98;;;;;;;24.86;67.82;95146.16;5110597;28;20638;-43
2023/09/17 10:54:25;;;;;;;18.98;16.77;;;;;;;24.88;67.78;95136.28;5111286;28;20189;-44
2023/09/17 10:56:54;;;;;;;20.45;17.60;;;;;;;25.02;67.66;95141.16;5110725;28;20216;-44
2023/09/17 10:59:22;;;;;;;19.60;16.98;;;;;;;25.13;66.85;95137.09;5110848;28;20182;-45
2023/09/17 11:01:49;;;;;;;21.45;17.63;;;;;;;24.81;66.52;95068.31;5111038;28;20242;-44
2023/09/17 11:04:19;;;;;;;24.05;17.77;;;;;;;25.36;66.08;95128.56;5110467;28;20188;-44
2023/09/17 11:06:48;;;;;;;22.52;17.95;;;;;;;25.53;65.58;95126.94;5110439;28;20730;-44
2023/09/17 11:09:16;;;;;;;19.90;17.05;;;;;;;25.66;64.87;95127.81;5110547;28;20189;-45
2023/09/17 11:11:44;;;;;;;20.48;16.92;;;;;;;25.73;64.80;95115.41;5110516;28;20242;-47
2023/09/17 11:14:13;;;;;;;19.27;17.13;;;;;;;25.79;64.26;95125.06;5110274;28;20658;-44
2023/09/17 11:16:41;;;;;;;20.35;16.75;;;;;;;25.70;64.20;95113.25;5110278;28;20222;-45
2023/09/17 11:19:11;;;;;;;22.25;17.88;;;;;;;25.48;64.23;95078.88;5110451;28;20211;-47
2023/09/17 11:21:38;;;;;;;22.67;18.15;;;;;;;25.87;64.43;95119.50;5110125;28;20665;-44